RYR84KK LEAM-EBCI
Flight info
| Callsign | RYR84KK |
|---|---|
| Flight time | 2h 12m |
| Altitude | 34000 |
| Route | AGIDO M192 ARPEX DCT BAZAS M192 BLN N865 VTB N867 RBO DCT OSTIX N867 DGO L176 LUSEM DCT LULUT DCT ADABI DCT BOKNO UN858 VANAD UN874 BAMES UT191 PODEM UN873 BAZOS DCT BELDI DCT VEKIN Z173 ARVOL |
| Aircraft | B738/M-SDE2E3FGHIRWXY/LB1 |
Departure
| Time | 2026-04-28 22:03 |
|---|---|
| Airport | Almería Airport (LEAM) |
Arrival
| Time | 2026-04-29 00:15 |
|---|---|
| Airport | Brussels South Charleroi Airport (EBCI) |
| Time | Latitude | Longitude | Altitude | Speed | Heading |
|---|---|---|---|---|---|
| 2026-04-28 21:57 | 36.84695 | -2.37085 | 50 ft | 0 kts | 120° |
| 2026-04-28 21:59 | 36.84664 | -2.37060 | 50 ft | 11 kts | 160° |
| 2026-04-28 21:59 | 36.84629 | -2.37031 | 50 ft | 3 kts | 79° |
| 2026-04-28 21:59 | 36.84645 | -2.36950 | 50 ft | 15 kts | 104° |
| 2026-04-28 22:00 | 36.84643 | -2.36688 | 50 ft | 19 kts | 72° |
| 2026-04-28 22:00 | 36.84685 | -2.36521 | 50 ft | 22 kts | 73° |
| 2026-04-28 22:00 | 36.84730 | -2.36332 | 50 ft | 23 kts | 73° |
| 2026-04-28 22:00 | 36.84777 | -2.36144 | 50 ft | 22 kts | 72° |
| 2026-04-28 22:01 | 36.84823 | -2.35959 | 50 ft | 22 kts | 72° |
| 2026-04-28 22:01 | 36.84866 | -2.35778 | 50 ft | 22 kts | 73° |
| 2026-04-28 22:01 | 36.84912 | -2.35593 | 50 ft | 24 kts | 72° |
| 2026-04-28 22:01 | 36.84943 | -2.35396 | 50 ft | 21 kts | 111° |
| 2026-04-28 22:02 | 36.84831 | -2.35334 | 50 ft | 18 kts | 204° |
| 2026-04-28 22:02 | 36.84775 | -2.35446 | 50 ft | 19 kts | 252° |
| 2026-04-28 22:02 | 36.84690 | -2.35784 | 50 ft | 70 kts | 253° |
| 2026-04-28 22:02 | 36.84492 | -2.36593 | 50 ft | 124 kts | 253° |
| 2026-04-28 22:03 | 36.84194 | -2.37802 | 124 ft | 162 kts | 252° |
| 2026-04-28 22:03 | 36.83867 | -2.39154 | 751 ft | 162 kts | 253° |
| 2026-04-28 22:03 | 36.83542 | -2.40512 | 1409 ft | 165 kts | 253° |
| 2026-04-28 22:03 | 36.83196 | -2.41908 | 1955 ft | 175 kts | 252° |
| 2026-04-28 22:04 | 36.82814 | -2.43452 | 2301 ft | 197 kts | 252° |
| 2026-04-28 22:04 | 36.82386 | -2.45183 | 2592 ft | 221 kts | 252° |
| 2026-04-28 22:04 | 36.81890 | -2.47110 | 2913 ft | 243 kts | 245° |
| 2026-04-28 22:04 | 36.80872 | -2.48810 | 3504 ft | 249 kts | 218° |
| 2026-04-28 22:05 | 36.79342 | -2.49755 | 4195 ft | 252 kts | 192° |
| 2026-04-28 22:05 | 36.77596 | -2.49775 | 4895 ft | 255 kts | 167° |
| 2026-04-28 22:05 | 36.75924 | -2.49044 | 5652 ft | 256 kts | 156° |
| 2026-04-28 22:05 | 36.74255 | -2.48219 | 6393 ft | 260 kts | 159° |
| 2026-04-28 22:06 | 36.72579 | -2.47362 | 7129 ft | 261 kts | 146° |
| 2026-04-28 22:06 | 36.71298 | -2.45781 | 7841 ft | 262 kts | 121° |
| 2026-04-28 22:06 | 36.70694 | -2.43648 | 8528 ft | 265 kts | 96° |
| 2026-04-28 22:06 | 36.70859 | -2.41358 | 9201 ft | 269 kts | 76° |
| 2026-04-28 22:07 | 36.71482 | -2.39133 | 9843 ft | 275 kts | 66° |
| 2026-04-28 22:07 | 36.72696 | -2.37303 | 10350 ft | 287 kts | 35° |
| 2026-04-28 22:07 | 36.74602 | -2.36403 | 10632 ft | 306 kts | 6° |
| 2026-04-28 22:07 | 36.76749 | -2.36772 | 10891 ft | 323 kts | 339° |
| 2026-04-28 22:08 | 36.78782 | -2.38105 | 11199 ft | 338 kts | 328° |
| 2026-04-28 22:08 | 36.80843 | -2.39614 | 11705 ft | 347 kts | 328° |
| 2026-04-28 22:08 | 36.82951 | -2.41183 | 12089 ft | 361 kts | 328° |
| 2026-04-28 22:08 | 36.85237 | -2.42655 | 12312 ft | 379 kts | 334° |
| 2026-04-28 22:09 | 36.87707 | -2.43957 | 12625 ft | 391 kts | 336° |
| 2026-04-28 22:09 | 36.90214 | -2.45228 | 13162 ft | 396 kts | 336° |
| 2026-04-28 22:09 | 36.92778 | -2.46519 | 13773 ft | 399 kts | 336° |
| 2026-04-28 22:09 | 36.95363 | -2.47822 | 14401 ft | 402 kts | 337° |
| 2026-04-28 22:10 | 36.97972 | -2.49139 | 15014 ft | 406 kts | 337° |
| 2026-04-28 22:10 | 37.00599 | -2.50467 | 15631 ft | 409 kts | 337° |
| 2026-04-28 22:10 | 37.03249 | -2.51808 | 16229 ft | 413 kts | 337° |
| 2026-04-28 22:10 | 37.05920 | -2.53162 | 16822 ft | 415 kts | 337° |
| 2026-04-28 22:11 | 37.08609 | -2.54526 | 17396 ft | 419 kts | 337° |
| 2026-04-28 22:11 | 37.11319 | -2.55902 | 17936 ft | 422 kts | 337° |
| 2026-04-28 22:11 | 37.14050 | -2.57290 | 18475 ft | 425 kts | 337° |
| 2026-04-28 22:11 | 37.16761 | -2.58669 | 19003 ft | 428 kts | 337° |
| 2026-04-28 22:12 | 37.19530 | -2.60066 | 19531 ft | 430 kts | 337° |
| 2026-04-28 22:12 | 37.22317 | -2.61470 | 20044 ft | 433 kts | 337° |
| 2026-04-28 22:12 | 37.25124 | -2.62888 | 20551 ft | 436 kts | 338° |
| 2026-04-28 22:12 | 37.27946 | -2.64317 | 21012 ft | 439 kts | 337° |
| 2026-04-28 22:13 | 37.30790 | -2.65760 | 21480 ft | 442 kts | 338° |
| 2026-04-28 22:13 | 37.33644 | -2.67211 | 21930 ft | 444 kts | 338° |
| 2026-04-28 22:13 | 37.36515 | -2.68673 | 22356 ft | 447 kts | 338° |
| 2026-04-28 22:13 | 37.39364 | -2.70125 | 22763 ft | 449 kts | 338° |
| 2026-04-28 22:14 | 37.42266 | -2.71606 | 23172 ft | 451 kts | 338° |
| 2026-04-28 22:14 | 37.45180 | -2.73095 | 23566 ft | 453 kts | 338° |
| 2026-04-28 22:14 | 37.48112 | -2.74595 | 23938 ft | 456 kts | 338° |
| 2026-04-28 22:14 | 37.51060 | -2.76104 | 24295 ft | 458 kts | 338° |
| 2026-04-28 22:15 | 37.54023 | -2.77623 | 24659 ft | 461 kts | 338° |
| 2026-04-28 22:15 | 37.56995 | -2.79148 | 25011 ft | 463 kts | 338° |
| 2026-04-28 22:15 | 37.59985 | -2.80683 | 25394 ft | 464 kts | 338° |
| 2026-04-28 22:15 | 37.62978 | -2.82222 | 25720 ft | 466 kts | 338° |
| 2026-04-28 22:16 | 37.65953 | -2.83752 | 26005 ft | 469 kts | 338° |
| 2026-04-28 22:16 | 37.68979 | -2.85311 | 26338 ft | 471 kts | 338° |
| 2026-04-28 22:16 | 37.72015 | -2.86876 | 26655 ft | 472 kts | 338° |
| 2026-04-28 22:16 | 37.75064 | -2.88449 | 26947 ft | 474 kts | 338° |
| 2026-04-28 22:17 | 37.78124 | -2.90029 | 27244 ft | 476 kts | 338° |
| 2026-04-28 22:17 | 37.81189 | -2.91612 | 27652 ft | 475 kts | 338° |
| 2026-04-28 22:17 | 37.84237 | -2.93189 | 28093 ft | 473 kts | 338° |
| 2026-04-28 22:17 | 37.87275 | -2.94762 | 28514 ft | 471 kts | 338° |
| 2026-04-28 22:18 | 37.90308 | -2.96333 | 28916 ft | 470 kts | 338° |
| 2026-04-28 22:18 | 37.93293 | -2.97881 | 29299 ft | 469 kts | 338° |
| 2026-04-28 22:18 | 37.96311 | -2.99448 | 29708 ft | 468 kts | 338° |
| 2026-04-28 22:18 | 37.99320 | -3.01011 | 30109 ft | 467 kts | 338° |
| 2026-04-28 22:19 | 38.02317 | -3.02569 | 30511 ft | 465 kts | 338° |
| 2026-04-28 22:19 | 38.05311 | -3.04127 | 30822 ft | 466 kts | 338° |
| 2026-04-28 22:19 | 38.08312 | -3.05690 | 31078 ft | 467 kts | 338° |
| 2026-04-28 22:19 | 38.11322 | -3.07259 | 31364 ft | 468 kts | 338° |
| 2026-04-28 22:20 | 38.14337 | -3.08831 | 31643 ft | 469 kts | 338° |
| 2026-04-28 22:20 | 38.17355 | -3.10407 | 31962 ft | 469 kts | 338° |
| 2026-04-28 22:20 | 38.20326 | -3.11958 | 32296 ft | 468 kts | 337° |
| 2026-04-28 22:20 | 38.23327 | -3.13528 | 32720 ft | 464 kts | 337° |
| 2026-04-28 22:21 | 38.26304 | -3.15085 | 33191 ft | 460 kts | 336° |
| 2026-04-28 22:21 | 38.29247 | -3.16628 | 33637 ft | 456 kts | 336° |
| 2026-04-28 22:21 | 38.32184 | -3.18168 | 33920 ft | 456 kts | 336° |
| 2026-04-28 22:21 | 38.35123 | -3.19711 | 34181 ft | 457 kts | 336° |
| 2026-04-28 22:22 | 38.38058 | -3.21253 | 34466 ft | 456 kts | 336° |
| 2026-04-28 22:22 | 38.40993 | -3.22796 | 34731 ft | 456 kts | 336° |
| 2026-04-28 22:22 | 38.43929 | -3.24340 | 34994 ft | 456 kts | 336° |
| 2026-04-28 22:22 | 38.46825 | -3.25865 | 35252 ft | 456 kts | 336° |
| 2026-04-28 22:23 | 38.49757 | -3.27410 | 35508 ft | 456 kts | 336° |
| 2026-04-28 22:23 | 38.52688 | -3.28955 | 35759 ft | 456 kts | 336° |
| 2026-04-28 22:23 | 38.55625 | -3.30505 | 35929 ft | 458 kts | 336° |
| 2026-04-28 22:24 | 38.61521 | -3.33620 | 35935 ft | 458 kts | 336° |
| 2026-04-28 22:24 | 38.67396 | -3.36728 | 35936 ft | 456 kts | 336° |
| 2026-04-28 22:25 | 38.73227 | -3.39850 | 35936 ft | 458 kts | 335° |
| 2026-04-28 22:25 | 38.79106 | -3.43012 | 35935 ft | 459 kts | 335° |
| 2026-04-28 22:26 | 38.84996 | -3.46167 | 35927 ft | 459 kts | 335° |
| 2026-04-28 22:26 | 38.90900 | -3.49328 | 35915 ft | 460 kts | 335° |
| 2026-04-28 22:27 | 38.96806 | -3.52379 | 35904 ft | 462 kts | 340° |
| 2026-04-28 22:27 | 39.03167 | -3.53729 | 35918 ft | 468 kts | 357° |
| 2026-04-28 22:28 | 39.09690 | -3.53332 | 35921 ft | 470 kts | 3° |
| 2026-04-28 22:28 | 39.16223 | -3.52635 | 35920 ft | 472 kts | 3° |
| 2026-04-28 22:29 | 39.22778 | -3.51962 | 35919 ft | 473 kts | 3° |
| 2026-04-28 22:29 | 39.29306 | -3.51308 | 35918 ft | 474 kts | 3° |
| 2026-04-28 22:30 | 39.35894 | -3.50651 | 35917 ft | 475 kts | 3° |
| 2026-04-28 22:30 | 39.42500 | -3.49992 | 35916 ft | 477 kts | 2° |
| 2026-04-28 22:31 | 39.49077 | -3.49334 | 35915 ft | 478 kts | 2° |
| 2026-04-28 22:31 | 39.55709 | -3.48670 | 35914 ft | 478 kts | 2° |
| 2026-04-28 22:32 | 39.62356 | -3.48000 | 35912 ft | 480 kts | 2° |
| 2026-04-28 22:32 | 39.69012 | -3.47325 | 35911 ft | 480 kts | 2° |
| 2026-04-28 22:33 | 39.75681 | -3.46647 | 35910 ft | 481 kts | 2° |
| 2026-04-28 22:33 | 39.82295 | -3.45735 | 35916 ft | 482 kts | 7° |
| 2026-04-28 22:34 | 39.88926 | -3.44347 | 35914 ft | 482 kts | 8° |
| 2026-04-28 22:34 | 39.95555 | -3.42967 | 35912 ft | 482 kts | 7° |
| 2026-04-28 22:35 | 40.02188 | -3.41608 | 35911 ft | 483 kts | 7° |
| 2026-04-28 22:35 | 40.08811 | -3.40263 | 35910 ft | 486 kts | 7° |
| 2026-04-28 22:36 | 40.15494 | -3.38916 | 35910 ft | 485 kts | 7° |
| 2026-04-28 22:36 | 40.22153 | -3.37576 | 35909 ft | 484 kts | 7° |
| 2026-04-28 22:37 | 40.28817 | -3.36232 | 35908 ft | 484 kts | 7° |
| 2026-04-28 22:37 | 40.35432 | -3.34894 | 35906 ft | 484 kts | 7° |
| 2026-04-28 22:38 | 40.42089 | -3.33545 | 35906 ft | 484 kts | 7° |
| 2026-04-28 22:38 | 40.48742 | -3.32194 | 35904 ft | 484 kts | 7° |
| 2026-04-28 22:39 | 40.55391 | -3.30844 | 35902 ft | 483 kts | 6° |
| 2026-04-28 22:39 | 40.61993 | -3.29501 | 35899 ft | 483 kts | 6° |
| 2026-04-28 22:40 | 40.68633 | -3.28143 | 35906 ft | 483 kts | 6° |
| 2026-04-28 22:40 | 40.75267 | -3.26783 | 35907 ft | 482 kts | 6° |
| 2026-04-28 22:41 | 40.81898 | -3.25421 | 35908 ft | 482 kts | 6° |
| 2026-04-28 22:41 | 40.88477 | -3.24023 | 35909 ft | 482 kts | 7° |
| 2026-04-28 22:42 | 40.95090 | -3.22532 | 35916 ft | 482 kts | 7° |
| 2026-04-28 22:42 | 41.01696 | -3.21042 | 35918 ft | 481 kts | 7° |
| 2026-04-28 22:43 | 41.08307 | -3.19549 | 35920 ft | 482 kts | 7° |
| 2026-04-28 22:43 | 41.14871 | -3.18064 | 35922 ft | 481 kts | 7° |
| 2026-04-28 22:44 | 41.21472 | -3.16578 | 35917 ft | 481 kts | 7° |
| 2026-04-28 22:44 | 41.28073 | -3.15089 | 35909 ft | 481 kts | 7° |
| 2026-04-28 22:45 | 41.34670 | -3.13591 | 35911 ft | 481 kts | 7° |
| 2026-04-28 22:45 | 41.41224 | -3.12097 | 35914 ft | 481 kts | 7° |
| 2026-04-28 22:46 | 41.47811 | -3.10593 | 35916 ft | 481 kts | 7° |
| 2026-04-28 22:46 | 41.54405 | -3.09098 | 35918 ft | 480 kts | 6° |
| 2026-04-28 22:47 | 41.60992 | -3.07607 | 35920 ft | 480 kts | 7° |
| 2026-04-28 22:47 | 41.67535 | -3.06121 | 35921 ft | 480 kts | 7° |
| 2026-04-28 22:48 | 41.74116 | -3.04619 | 35922 ft | 480 kts | 7° |
| 2026-04-28 22:48 | 41.80698 | -3.03108 | 35922 ft | 480 kts | 7° |
| 2026-04-28 22:49 | 41.87281 | -3.01591 | 35922 ft | 480 kts | 7° |
| 2026-04-28 22:49 | 41.93812 | -3.00082 | 35921 ft | 480 kts | 7° |
| 2026-04-28 22:50 | 42.00393 | -2.98558 | 35917 ft | 480 kts | 7° |
| 2026-04-28 22:50 | 42.06975 | -2.97030 | 35917 ft | 480 kts | 6° |
| 2026-04-28 22:51 | 42.13555 | -2.95511 | 35917 ft | 480 kts | 6° |
| 2026-04-28 22:51 | 42.20092 | -2.94001 | 35916 ft | 479 kts | 6° |
| 2026-04-28 22:52 | 42.26655 | -2.92471 | 35916 ft | 479 kts | 6° |
| 2026-04-28 22:52 | 42.33222 | -2.90935 | 35931 ft | 480 kts | 6° |
| 2026-04-28 22:53 | 42.39798 | -2.89391 | 35941 ft | 480 kts | 7° |
| 2026-04-28 22:53 | 42.46087 | -2.86428 | 35944 ft | 488 kts | 26° |
| 2026-04-28 22:54 | 42.51569 | -2.80990 | 35938 ft | 491 kts | 40° |
| 2026-04-28 22:54 | 42.56601 | -2.74717 | 35937 ft | 491 kts | 41° |
| 2026-04-28 22:55 | 42.61654 | -2.68465 | 35940 ft | 491 kts | 41° |
| 2026-04-28 22:55 | 42.66731 | -2.62247 | 35944 ft | 491 kts | 40° |
| 2026-04-28 22:56 | 42.71784 | -2.56087 | 35947 ft | 491 kts | 40° |
| 2026-04-28 22:56 | 42.76898 | -2.49921 | 35949 ft | 491 kts | 40° |
| 2026-04-28 22:57 | 42.82000 | -2.43725 | 35949 ft | 491 kts | 40° |
| 2026-04-28 22:57 | 42.87084 | -2.37507 | 35948 ft | 491 kts | 40° |
| 2026-04-28 22:58 | 42.92130 | -2.31312 | 35945 ft | 491 kts | 40° |
| 2026-04-28 22:58 | 42.97209 | -2.25070 | 35948 ft | 491 kts | 40° |
| 2026-04-28 22:59 | 43.02282 | -2.18819 | 35945 ft | 492 kts | 40° |
| 2026-04-28 22:59 | 43.07359 | -2.12532 | 35942 ft | 493 kts | 40° |
| 2026-04-28 23:00 | 43.12409 | -2.06293 | 35940 ft | 492 kts | 40° |
| 2026-04-28 23:00 | 43.17498 | -1.99988 | 35938 ft | 494 kts | 40° |
| 2026-04-28 23:01 | 43.22577 | -1.93658 | 35937 ft | 493 kts | 40° |
| 2026-04-28 23:01 | 43.27653 | -1.87315 | 35936 ft | 494 kts | 40° |
| 2026-04-28 23:02 | 43.33010 | -1.81552 | 35934 ft | 491 kts | 30° |
| 2026-04-28 23:02 | 43.38927 | -1.76881 | 35934 ft | 491 kts | 28° |
| 2026-04-28 23:03 | 43.44684 | -1.71776 | 35935 ft | 493 kts | 31° |
| 2026-04-28 23:03 | 43.50380 | -1.66542 | 35935 ft | 492 kts | 31° |
| 2026-04-28 23:04 | 43.56051 | -1.61353 | 35935 ft | 492 kts | 31° |
| 2026-04-28 23:04 | 43.64617 | -1.53524 | 35935 ft | 492 kts | 31° |
| 2026-04-28 23:05 | 43.70339 | -1.48325 | 35935 ft | 492 kts | 31° |
| 2026-04-28 23:05 | 43.76023 | -1.43153 | 35935 ft | 492 kts | 31° |
| 2026-04-28 23:06 | 43.81738 | -1.37931 | 35935 ft | 492 kts | 31° |
| 2026-04-28 23:06 | 43.87452 | -1.32692 | 35935 ft | 492 kts | 31° |
| 2026-04-28 23:07 | 43.93161 | -1.27445 | 35935 ft | 492 kts | 31° |
| 2026-04-28 23:07 | 43.98832 | -1.22220 | 35935 ft | 492 kts | 31° |
| 2026-04-28 23:08 | 44.04544 | -1.16944 | 35935 ft | 494 kts | 31° |
| 2026-04-28 23:08 | 44.10265 | -1.11646 | 35935 ft | 495 kts | 31° |
| 2026-04-28 23:09 | 44.15997 | -1.06346 | 35938 ft | 494 kts | 31° |
| 2026-04-28 23:09 | 44.21689 | -1.01061 | 35938 ft | 495 kts | 31° |
| 2026-04-28 23:10 | 44.27406 | -0.95721 | 35938 ft | 494 kts | 31° |
| 2026-04-28 23:10 | 44.33119 | -0.90367 | 35939 ft | 495 kts | 31° |
| 2026-04-28 23:11 | 44.38865 | -0.85055 | 35937 ft | 494 kts | 28° |
| 2026-04-28 23:11 | 44.44952 | -0.80828 | 35937 ft | 491 kts | 20° |
| 2026-04-28 23:12 | 44.51216 | -0.77041 | 35941 ft | 491 kts | 20° |
| 2026-04-28 23:12 | 44.57482 | -0.73226 | 35946 ft | 491 kts | 20° |
| 2026-04-28 23:13 | 44.63739 | -0.69394 | 35953 ft | 491 kts | 20° |
| 2026-04-28 23:13 | 44.69956 | -0.65569 | 35959 ft | 491 kts | 20° |
| 2026-04-28 23:14 | 44.76222 | -0.61730 | 35962 ft | 491 kts | 20° |
| 2026-04-28 23:14 | 44.82482 | -0.57882 | 35963 ft | 491 kts | 20° |
| 2026-04-28 23:15 | 44.88734 | -0.54023 | 35964 ft | 491 kts | 20° |
| 2026-04-28 23:15 | 44.94947 | -0.50174 | 35963 ft | 491 kts | 20° |
| 2026-04-28 23:16 | 45.01201 | -0.46289 | 35964 ft | 491 kts | 20° |
| 2026-04-28 23:16 | 45.07452 | -0.42395 | 35964 ft | 491 kts | 20° |
| 2026-04-28 23:17 | 45.13703 | -0.38491 | 35964 ft | 491 kts | 20° |
| 2026-04-28 23:17 | 45.19913 | -0.34603 | 35964 ft | 491 kts | 20° |
| 2026-04-28 23:18 | 45.26163 | -0.30680 | 35964 ft | 491 kts | 20° |
| 2026-04-28 23:18 | 45.32414 | -0.26747 | 35964 ft | 491 kts | 20° |
| 2026-04-28 23:19 | 45.38664 | -0.22806 | 35964 ft | 491 kts | 20° |
| 2026-04-28 23:19 | 45.44914 | -0.18855 | 35964 ft | 491 kts | 20° |
| 2026-04-28 23:20 | 45.51120 | -0.14921 | 35964 ft | 492 kts | 20° |
| 2026-04-28 23:20 | 45.57367 | -0.10952 | 35964 ft | 492 kts | 20° |
| 2026-04-28 23:21 | 45.63615 | -0.06973 | 35964 ft | 492 kts | 20° |
| 2026-04-28 23:21 | 45.69820 | -0.03011 | 35964 ft | 492 kts | 20° |
| 2026-04-28 23:22 | 45.75051 | 0.00335 | 35964 ft | 492 kts | 20° |
| 2026-04-28 23:22 | 45.82341 | 0.05010 | 35964 ft | 496 kts | 21° |
| 2026-04-28 23:23 | 45.88636 | 0.09060 | 35964 ft | 495 kts | 21° |
| 2026-04-28 23:23 | 45.94919 | 0.13111 | 35964 ft | 495 kts | 21° |
| 2026-04-28 23:24 | 46.01163 | 0.17148 | 35964 ft | 495 kts | 21° |
| 2026-04-28 23:24 | 46.07445 | 0.21219 | 35964 ft | 495 kts | 21° |
| 2026-04-28 23:25 | 46.13726 | 0.25299 | 35968 ft | 495 kts | 21° |
| 2026-04-28 23:25 | 46.19968 | 0.29364 | 35969 ft | 495 kts | 21° |
| 2026-04-28 23:26 | 46.26231 | 0.33454 | 35969 ft | 494 kts | 21° |
| 2026-04-28 23:26 | 46.32507 | 0.37539 | 35968 ft | 495 kts | 21° |
| 2026-04-28 23:27 | 46.38779 | 0.41655 | 35967 ft | 495 kts | 21° |
| 2026-04-28 23:27 | 46.45008 | 0.45762 | 35966 ft | 495 kts | 21° |
| 2026-04-28 23:28 | 46.51275 | 0.49905 | 35966 ft | 495 kts | 21° |
| 2026-04-28 23:28 | 46.57662 | 0.53559 | 35966 ft | 491 kts | 13° |
| 2026-04-28 23:29 | 46.64283 | 0.55862 | 35967 ft | 489 kts | 9° |
| 2026-04-28 23:29 | 46.70889 | 0.57999 | 35969 ft | 489 kts | 9° |
| 2026-04-28 23:30 | 46.77538 | 0.60167 | 35971 ft | 489 kts | 9° |
| 2026-04-28 23:30 | 46.84172 | 0.62353 | 35975 ft | 489 kts | 9° |
| 2026-04-28 23:31 | 46.89688 | 0.64186 | 35979 ft | 489 kts | 9° |
| 2026-04-28 23:31 | 46.97410 | 0.66762 | 35983 ft | 490 kts | 9° |
| 2026-04-28 23:32 | 47.04069 | 0.68910 | 35985 ft | 488 kts | 6° |
| 2026-04-28 23:32 | 47.10795 | 0.69884 | 35989 ft | 485 kts | 360° |
| 2026-04-28 23:33 | 47.16388 | 0.70439 | 35990 ft | 485 kts | 0° |
| 2026-04-28 23:33 | 47.23123 | 0.71123 | 35992 ft | 486 kts | 0° |
| 2026-04-28 23:34 | 47.29868 | 0.71823 | 35993 ft | 486 kts | 0° |
| 2026-04-28 23:34 | 47.36567 | 0.72525 | 35994 ft | 486 kts | 0° |
| 2026-04-28 23:35 | 47.43318 | 0.73236 | 35994 ft | 486 kts | 0° |
| 2026-04-28 23:35 | 47.50051 | 0.74405 | 35994 ft | 490 kts | 8° |
| 2026-04-28 23:36 | 47.56626 | 0.77201 | 35995 ft | 493 kts | 16° |
| 2026-04-28 23:36 | 47.63125 | 0.80475 | 35998 ft | 493 kts | 16° |
| 2026-04-28 23:37 | 47.69585 | 0.83693 | 36001 ft | 493 kts | 16° |
| 2026-04-28 23:37 | 47.76094 | 0.86924 | 36005 ft | 494 kts | 15° |
| 2026-04-28 23:38 | 47.82610 | 0.90156 | 36007 ft | 493 kts | 15° |
| 2026-04-28 23:38 | 47.89155 | 0.93194 | 36009 ft | 492 kts | 13° |
| 2026-04-28 23:39 | 47.95684 | 0.96043 | 36011 ft | 492 kts | 13° |
| 2026-04-28 23:39 | 48.02252 | 0.98938 | 36021 ft | 492 kts | 14° |
| 2026-04-28 23:40 | 48.08788 | 1.01840 | 36028 ft | 489 kts | 14° |
| 2026-04-28 23:40 | 48.15302 | 1.04747 | 36032 ft | 489 kts | 14° |
| 2026-04-28 23:41 | 48.21779 | 1.07626 | 36036 ft | 489 kts | 14° |
| 2026-04-28 23:41 | 48.28293 | 1.10532 | 36040 ft | 488 kts | 14° |
| 2026-04-28 23:42 | 48.34809 | 1.13452 | 36044 ft | 488 kts | 14° |
| 2026-04-28 23:42 | 48.41322 | 1.16382 | 36049 ft | 488 kts | 14° |
| 2026-04-28 23:43 | 48.47830 | 1.19320 | 36057 ft | 488 kts | 14° |
| 2026-04-28 23:43 | 48.54276 | 1.22238 | 36063 ft | 487 kts | 14° |
| 2026-04-28 23:44 | 48.60764 | 1.25184 | 36059 ft | 487 kts | 14° |
| 2026-04-28 23:44 | 48.67247 | 1.28134 | 36063 ft | 486 kts | 14° |
| 2026-04-28 23:45 | 48.73719 | 1.31089 | 36068 ft | 485 kts | 15° |
| 2026-04-28 23:45 | 48.80140 | 1.34028 | 36075 ft | 485 kts | 15° |
| 2026-04-28 23:46 | 48.86601 | 1.36993 | 36078 ft | 485 kts | 15° |
| 2026-04-28 23:46 | 48.93050 | 1.39961 | 36079 ft | 484 kts | 15° |
| 2026-04-28 23:47 | 48.99494 | 1.42921 | 36080 ft | 483 kts | 15° |
| 2026-04-28 23:47 | 49.05887 | 1.45875 | 36083 ft | 483 kts | 15° |
| 2026-04-28 23:48 | 49.12305 | 1.48858 | 36087 ft | 482 kts | 15° |
| 2026-04-28 23:48 | 49.18708 | 1.51845 | 36093 ft | 481 kts | 16° |
| 2026-04-28 23:49 | 49.24964 | 1.55446 | 36095 ft | 482 kts | 27° |
| 2026-04-28 23:49 | 49.30381 | 1.61311 | 36099 ft | 481 kts | 41° |
| 2026-04-28 23:50 | 49.35210 | 1.68380 | 36100 ft | 480 kts | 45° |
| 2026-04-28 23:50 | 49.40005 | 1.75510 | 36104 ft | 479 kts | 44° |
| 2026-04-28 23:51 | 49.44798 | 1.82598 | 36107 ft | 478 kts | 44° |
| 2026-04-28 23:51 | 49.47194 | 1.86138 | 35978 ft | 478 kts | 44° |
| 2026-04-28 23:51 | 49.49554 | 1.89620 | 35371 ft | 476 kts | 44° |
| 2026-04-28 23:52 | 49.51944 | 1.93152 | 34648 ft | 477 kts | 45° |
| 2026-04-28 23:52 | 49.54339 | 1.96689 | 33914 ft | 478 kts | 45° |
| 2026-04-28 23:52 | 49.56739 | 2.00243 | 33167 ft | 479 kts | 45° |
| 2026-04-28 23:52 | 49.59143 | 2.03812 | 32404 ft | 480 kts | 45° |
| 2026-04-28 23:53 | 49.61549 | 2.07389 | 31623 ft | 482 kts | 44° |
| 2026-04-28 23:53 | 49.63966 | 2.10987 | 30822 ft | 483 kts | 44° |
| 2026-04-28 23:53 | 49.66382 | 2.14590 | 30003 ft | 484 kts | 44° |
| 2026-04-28 23:53 | 49.68771 | 2.18158 | 29188 ft | 485 kts | 44° |
| 2026-04-28 23:54 | 49.71192 | 2.21778 | 28348 ft | 485 kts | 44° |
| 2026-04-28 23:54 | 49.73625 | 2.25388 | 27483 ft | 485 kts | 44° |
| 2026-04-28 23:54 | 49.76069 | 2.28983 | 26775 ft | 482 kts | 44° |
| 2026-04-28 23:54 | 49.78474 | 2.32556 | 26124 ft | 477 kts | 45° |
| 2026-04-28 23:55 | 49.80850 | 2.36111 | 25480 ft | 473 kts | 45° |
| 2026-04-28 23:55 | 49.83199 | 2.39641 | 24837 ft | 468 kts | 45° |
| 2026-04-28 23:55 | 49.85525 | 2.43147 | 24199 ft | 464 kts | 46° |
| 2026-04-28 23:55 | 49.87826 | 2.46624 | 23562 ft | 461 kts | 46° |
| 2026-04-28 23:56 | 49.90109 | 2.50078 | 22930 ft | 457 kts | 46° |
| 2026-04-28 23:56 | 49.92375 | 2.53509 | 22297 ft | 453 kts | 46° |
| 2026-04-28 23:56 | 49.94590 | 2.56863 | 21676 ft | 449 kts | 46° |
| 2026-04-28 23:56 | 49.96842 | 2.60206 | 21049 ft | 446 kts | 45° |
| 2026-04-28 23:57 | 49.99057 | 2.63553 | 20423 ft | 442 kts | 47° |
| 2026-04-28 23:57 | 50.01230 | 2.66906 | 19801 ft | 439 kts | 47° |
| 2026-04-28 23:57 | 50.03388 | 2.70235 | 19184 ft | 434 kts | 47° |
| 2026-04-28 23:57 | 50.05523 | 2.73528 | 18570 ft | 430 kts | 47° |
| 2026-04-28 23:58 | 50.07639 | 2.76791 | 17959 ft | 426 kts | 47° |
| 2026-04-28 23:58 | 50.09735 | 2.80024 | 17351 ft | 422 kts | 47° |
| 2026-04-28 23:58 | 50.11785 | 2.83186 | 16754 ft | 418 kts | 47° |
| 2026-04-28 23:58 | 50.13841 | 2.86362 | 16155 ft | 415 kts | 47° |
| 2026-04-28 23:59 | 50.15826 | 2.89428 | 15577 ft | 411 kts | 47° |
| 2026-04-28 23:59 | 50.17907 | 2.92634 | 14973 ft | 407 kts | 46° |
| 2026-04-28 23:59 | 50.19929 | 2.95696 | 14389 ft | 404 kts | 46° |
| 2026-04-28 23:59 | 50.21928 | 2.98746 | 13808 ft | 400 kts | 46° |
| 2026-04-29 00:00 | 50.23900 | 3.01779 | 13227 ft | 397 kts | 46° |
| 2026-04-29 00:00 | 50.25831 | 3.04762 | 12653 ft | 394 kts | 46° |
| 2026-04-29 00:00 | 50.27754 | 3.07745 | 12348 ft | 383 kts | 46° |
| 2026-04-29 00:00 | 50.29613 | 3.10638 | 12156 ft | 371 kts | 46° |
| 2026-04-29 00:01 | 50.31418 | 3.13451 | 11965 ft | 361 kts | 46° |
| 2026-04-29 00:01 | 50.33169 | 3.16185 | 11776 ft | 351 kts | 46° |
| 2026-04-29 00:01 | 50.34876 | 3.18853 | 11591 ft | 342 kts | 47° |
| 2026-04-29 00:01 | 50.36541 | 3.21457 | 11411 ft | 334 kts | 47° |
| 2026-04-29 00:02 | 50.38168 | 3.24002 | 11236 ft | 327 kts | 47° |
| 2026-04-29 00:02 | 50.39420 | 3.26820 | 11059 ft | 316 kts | 70° |
| 2026-04-29 00:02 | 50.39855 | 3.30122 | 10894 ft | 306 kts | 85° |
| 2026-04-29 00:02 | 50.40008 | 3.33408 | 10719 ft | 298 kts | 88° |
| 2026-04-29 00:03 | 50.40074 | 3.36614 | 10557 ft | 291 kts | 90° |
| 2026-04-29 00:03 | 50.40088 | 3.39741 | 10402 ft | 283 kts | 90° |
| 2026-04-29 00:03 | 50.40085 | 3.42788 | 10252 ft | 276 kts | 91° |
| 2026-04-29 00:03 | 50.40073 | 3.45764 | 10059 ft | 271 kts | 91° |
| 2026-04-29 00:04 | 50.40054 | 3.48711 | 9774 ft | 270 kts | 91° |
| 2026-04-29 00:04 | 50.40031 | 3.51599 | 9501 ft | 267 kts | 91° |
| 2026-04-29 00:04 | 50.40003 | 3.54499 | 9225 ft | 265 kts | 91° |
| 2026-04-29 00:04 | 50.39972 | 3.57377 | 8952 ft | 263 kts | 92° |
| 2026-04-29 00:05 | 50.39938 | 3.60231 | 8687 ft | 260 kts | 92° |
| 2026-04-29 00:05 | 50.39902 | 3.63050 | 8435 ft | 257 kts | 92° |
| 2026-04-29 00:05 | 50.39865 | 3.65842 | 8167 ft | 255 kts | 92° |
| 2026-04-29 00:05 | 50.39826 | 3.68607 | 7905 ft | 252 kts | 91° |
| 2026-04-29 00:06 | 50.39800 | 3.71351 | 7552 ft | 253 kts | 90° |
| 2026-04-29 00:06 | 50.39790 | 3.74081 | 7218 ft | 254 kts | 91° |
| 2026-04-29 00:06 | 50.39771 | 3.76836 | 6934 ft | 252 kts | 91° |
| 2026-04-29 00:06 | 50.39744 | 3.79561 | 6675 ft | 249 kts | 91° |
| 2026-04-29 00:07 | 50.39712 | 3.82256 | 6409 ft | 246 kts | 91° |
| 2026-04-29 00:07 | 50.39676 | 3.84917 | 6150 ft | 243 kts | 91° |
| 2026-04-29 00:07 | 50.39637 | 3.87543 | 5886 ft | 240 kts | 91° |
| 2026-04-29 00:07 | 50.39597 | 3.90145 | 5612 ft | 238 kts | 91° |
| 2026-04-29 00:08 | 50.39554 | 3.92725 | 5334 ft | 236 kts | 91° |
| 2026-04-29 00:08 | 50.39510 | 3.95278 | 5050 ft | 234 kts | 90° |
| 2026-04-29 00:08 | 50.39466 | 3.97784 | 4767 ft | 232 kts | 90° |
| 2026-04-29 00:08 | 50.39421 | 4.00305 | 4476 ft | 231 kts | 90° |
| 2026-04-29 00:09 | 50.39375 | 4.02808 | 4203 ft | 229 kts | 90° |
| 2026-04-29 00:09 | 50.39329 | 4.05282 | 4062 ft | 224 kts | 89° |
| 2026-04-29 00:09 | 50.39284 | 4.07677 | 3932 ft | 216 kts | 89° |
| 2026-04-29 00:09 | 50.39240 | 4.09979 | 3811 ft | 207 kts | 89° |
| 2026-04-29 00:10 | 50.39198 | 4.12182 | 3696 ft | 199 kts | 89° |
| 2026-04-29 00:10 | 50.39158 | 4.14306 | 3611 ft | 191 kts | 89° |
| 2026-04-29 00:10 | 50.39119 | 4.16337 | 3501 ft | 187 kts | 89° |
| 2026-04-29 00:10 | 50.39081 | 4.18363 | 3394 ft | 185 kts | 88° |
| 2026-04-29 00:11 | 50.39053 | 4.20373 | 3290 ft | 184 kts | 84° |
| 2026-04-29 00:11 | 50.39339 | 4.22303 | 3195 ft | 181 kts | 70° |
| 2026-04-29 00:11 | 50.40311 | 4.25693 | 2998 ft | 159 kts | 69° |
| 2026-04-29 00:12 | 50.40761 | 4.27241 | 2887 ft | 154 kts | 70° |
| 2026-04-29 00:12 | 50.41199 | 4.28752 | 2695 ft | 149 kts | 70° |
| 2026-04-29 00:12 | 50.41606 | 4.30159 | 2512 ft | 137 kts | 70° |
| 2026-04-29 00:12 | 50.41983 | 4.31462 | 2421 ft | 128 kts | 70° |
| 2026-04-29 00:13 | 50.42352 | 4.32737 | 2267 ft | 129 kts | 70° |
| 2026-04-29 00:13 | 50.42724 | 4.34025 | 2097 ft | 130 kts | 69° |
| 2026-04-29 00:13 | 50.43101 | 4.35328 | 1913 ft | 134 kts | 69° |
| 2026-04-29 00:13 | 50.43495 | 4.36688 | 1739 ft | 139 kts | 67° |
| 2026-04-29 00:14 | 50.43899 | 4.38080 | 1554 ft | 141 kts | 66° |
| 2026-04-29 00:14 | 50.44303 | 4.39475 | 1359 ft | 140 kts | 65° |
| 2026-04-29 00:14 | 50.44708 | 4.40866 | 1152 ft | 140 kts | 65° |
| 2026-04-29 00:14 | 50.45105 | 4.42243 | 957 ft | 141 kts | 65° |
| 2026-04-29 00:15 | 50.45512 | 4.43646 | 755 ft | 142 kts | 65° |
| 2026-04-29 00:15 | 50.45916 | 4.45044 | 623 ft | 134 kts | 65° |
| 2026-04-29 00:15 | 50.46218 | 4.46081 | 622 ft | 71 kts | 65° |
| 2026-04-29 00:15 | 50.46342 | 4.46509 | 622 ft | 29 kts | 66° |
| 2026-04-29 00:16 | 50.46420 | 4.46777 | 622 ft | 24 kts | 65° |
| 2026-04-29 00:16 | 50.46448 | 4.46872 | 622 ft | 1 kts | 65° |
| 2026-04-29 00:16 | 50.46448 | 4.46873 | 622 ft | 0 kts | 65° |
| 2026-04-29 00:16 | 50.46454 | 4.46887 | 622 ft | 5 kts | 45° |
| 2026-04-29 00:17 | 50.46514 | 4.46887 | 622 ft | 14 kts | 339° |
| 2026-04-29 00:17 | 50.46600 | 4.46825 | 622 ft | 11 kts | 335° |
| 2026-04-29 00:17 | 50.46654 | 4.46788 | 622 ft | 7 kts | 337° |
| 2026-04-29 00:17 | 50.46716 | 4.46790 | 622 ft | 11 kts | 43° |
| 2026-04-29 00:18 | 50.46750 | 4.46890 | 622 ft | 10 kts | 65° |
| 2026-04-29 00:18 | 50.46787 | 4.46949 | 622 ft | 7 kts | 357° |
| 2026-04-29 00:18 | 50.46827 | 4.46926 | 622 ft | 0 kts | 336° |